sensor_id;sensor_type;location;lat;lon;timestamp;pressure;altitude;pressure_sealevel;temperature;humidity
61710;BME280;47633;51.494;5.386;2023-02-10T00:01:38;103469.03;;;18.15;41.92
61710;BME280;47633;51.494;5.386;2023-02-10T00:04:03;103464.66;;;18.14;42.14
61710;BME280;47633;51.494;5.386;2023-02-10T00:06:29;103473.50;;;18.13;41.90
61710;BME280;47633;51.494;5.386;2023-02-10T00:08:59;103473.59;;;18.10;41.92
61710;BME280;47633;51.494;5.386;2023-02-10T00:11:26;103480.75;;;18.08;41.79
61710;BME280;47633;51.494;5.386;2023-02-10T00:14:12;103493.81;;;18.11;41.96
61710;BME280;47633;51.494;5.386;2023-02-10T00:16:37;103492.16;;;18.08;41.82
61710;BME280;47633;51.494;5.386;2023-02-10T00:19:03;103489.56;;;18.07;41.90
61710;BME280;47633;51.494;5.386;2023-02-10T00:21:28;103500.28;;;18.02;41.86
61710;BME280;47633;51.494;5.386;2023-02-10T00:23:55;103501.13;;;18.04;41.83
61710;BME280;47633;51.494;5.386;2023-02-10T00:26:20;103495.00;;;18.02;41.79
61710;BME280;47633;51.494;5.386;2023-02-10T00:28:45;103499.44;;;18.02;41.65
61710;BME280;47633;51.494;5.386;2023-02-10T00:31:12;103506.50;;;18.01;41.60
61710;BME280;47633;51.494;5.386;2023-02-10T00:33:39;103492.66;;;17.96;41.97
61710;BME280;47633;51.494;5.386;2023-02-10T00:36:09;103504.78;;;18.00;41.79
61710;BME280;47633;51.494;5.386;2023-02-10T00:38:35;103500.50;;;17.98;41.82
61710;BME280;47633;51.494;5.386;2023-02-10T00:41:05;103499.63;;;17.97;41.66
61710;BME280;47633;51.494;5.386;2023-02-10T00:43:31;103498.78;;;17.97;41.73
61710;BME280;47633;51.494;5.386;2023-02-10T00:45:56;103502.31;;;17.95;41.60
61710;BME280;47633;51.494;5.386;2023-02-10T00:48:21;103504.16;;;17.93;41.56
61710;BME280;47633;51.494;5.386;2023-02-10T00:50:47;103503.38;;;17.91;41.74
61710;BME280;47633;51.494;5.386;2023-02-10T00:53:12;103500.84;;;17.88;41.71
61710;BME280;47633;51.494;5.386;2023-02-10T00:55:37;103513.03;;;17.91;41.70
61710;BME280;47633;51.494;5.386;2023-02-10T00:58:03;103505.28;;;17.86;41.70
61710;BME280;47633;51.494;5.386;2023-02-10T01:00:28;103504.41;;;17.86;41.48
61710;BME280;47633;51.494;5.386;2023-02-10T01:02:53;103503.75;;;17.81;41.60
61710;BME280;47633;51.494;5.386;2023-02-10T01:05:18;103508.84;;;17.85;41.66
61710;BME280;47633;51.494;5.386;2023-02-10T01:07:44;103503.81;;;17.79;41.52
61710;BME280;47633;51.494;5.386;2023-02-10T01:10:09;103508.13;;;17.82;41.41
61710;BME280;47633;51.494;5.386;2023-02-10T01:12:34;103510.75;;;17.82;41.56
61710;BME280;47633;51.494;5.386;2023-02-10T01:14:59;103518.72;;;17.80;41.42
61710;BME280;47633;51.494;5.386;2023-02-10T01:17:25;103524.84;;;17.81;41.51
61710;BME280;47633;51.494;5.386;2023-02-10T01:19:50;103530.22;;;17.77;41.57
61710;BME280;47633;51.494;5.386;2023-02-10T01:22:16;103519.75;;;17.76;41.43
61710;BME280;47633;51.494;5.386;2023-02-10T01:24:41;103506.78;;;17.70;41.54
61710;BME280;47633;51.494;5.386;2023-02-10T01:27:07;103517.09;;;17.76;41.44
61710;BME280;47633;51.494;5.386;2023-02-10T01:29:32;103531.19;;;17.75;41.46
61710;BME280;47633;51.494;5.386;2023-02-10T01:31:57;103526.97;;;17.71;41.38
61710;BME280;47633;51.494;5.386;2023-02-10T01:34:23;103540.97;;;17.73;41.13
61710;BME280;47633;51.494;5.386;2023-02-10T01:36:48;103534.13;;;17.67;41.28
61710;BME280;47633;51.494;5.386;2023-02-10T01:39:15;103539.38;;;17.67;41.22
61710;BME280;47633;51.494;5.386;2023-02-10T01:41:40;103544.66;;;17.67;41.29
61710;BME280;47633;51.494;5.386;2023-02-10T01:46:47;103539.66;;;17.61;41.44
61710;BME280;47633;51.494;5.386;2023-02-10T01:49:14;103544.81;;;17.64;41.37
61710;BME280;47633;51.494;5.386;2023-02-10T01:51:48;103534.38;;;17.61;41.34
61710;BME280;47633;51.494;5.386;2023-02-10T01:54:20;103532.69;;;17.58;41.32
61710;BME280;47633;51.494;5.386;2023-02-10T01:56:47;103532.53;;;17.63;41.18
61710;BME280;47633;51.494;5.386;2023-02-10T01:59:13;103521.34;;;17.56;41.36
61710;BME280;47633;51.494;5.386;2023-02-10T02:01:39;103512.50;;;17.57;41.35
61710;BME280;47633;51.494;5.386;2023-02-10T02:04:05;103516.75;;;17.62;41.00
61710;BME280;47633;51.494;5.386;2023-02-10T02:06:31;103518.59;;;17.59;41.31
61710;BME280;47633;51.494;5.386;2023-02-10T02:08:58;103513.38;;;17.58;41.27
61710;BME280;47633;51.494;5.386;2023-02-10T02:14:35;103502.06;;;17.54;41.15
61710;BME280;47633;51.494;5.386;2023-02-10T02:28:43;103517.09;;;17.52;41.23
61710;BME280;47633;51.494;5.386;2023-02-10T02:34:06;103509.44;;;17.45;41.15
61710;BME280;47633;51.494;5.386;2023-02-10T02:36:37;103529.53;;;17.49;40.99
61710;BME280;47633;51.494;5.386;2023-02-10T02:39:05;103522.59;;;17.46;41.32
61710;BME280;47633;51.494;5.386;2023-02-10T02:41:32;103516.56;;;17.43;41.36
61710;BME280;47633;51.494;5.386;2023-02-10T02:43:58;103530.50;;;17.46;41.53
61710;BME280;47633;51.494;5.386;2023-02-10T02:46:46;103528.78;;;17.45;41.36
61710;BME280;47633;51.494;5.386;2023-02-10T02:49:38;103520.16;;;17.40;41.25
61710;BME280;47633;51.494;5.386;2023-02-10T02:52:21;103532.34;;;17.44;41.15
61710;BME280;47633;51.494;5.386;2023-02-10T02:55:00;103514.03;;;17.39;41.38
61710;BME280;47633;51.494;5.386;2023-02-10T02:57:50;103527.97;;;17.43;41.47
61710;BME280;47633;51.494;5.386;2023-02-10T03:00:22;103516.63;;;17.41;41.17
61710;BME280;47633;51.494;5.386;2023-02-10T03:02:49;103505.28;;;17.39;41.28
61710;BME280;47633;51.494;5.386;2023-02-10T03:05:19;103509.63;;;17.40;41.10
61710;BME280;47633;51.494;5.386;2023-02-10T03:07:46;103514.03;;;17.39;41.17
61710;BME280;47633;51.494;5.386;2023-02-10T03:10:11;103518.47;;;17.39;41.01
61710;BME280;47633;51.494;5.386;2023-02-10T03:12:37;103533.34;;;17.40;41.07
61710;BME280;47633;51.494;5.386;2023-02-10T03:15:02;103519.59;;;17.32;41.11
61710;BME280;47633;51.494;5.386;2023-02-10T03:17:28;103523.00;;;17.34;40.93
61710;BME280;47633;51.494;5.386;2023-02-10T03:19:53;103534.38;;;17.36;40.90
61710;BME280;47633;51.494;5.386;2023-02-10T03:22:18;103544.94;;;17.36;41.05
61710;BME280;47633;51.494;5.386;2023-02-10T03:24:44;103541.47;;;17.34;40.91
61710;BME280;47633;51.494;5.386;2023-02-10T03:27:09;103538.91;;;17.32;41.07
61710;BME280;47633;51.494;5.386;2023-02-10T03:29:34;103552.91;;;17.34;40.97
61710;BME280;47633;51.494;5.386;2023-02-10T03:31:59;103549.38;;;17.34;40.95
61710;BME280;47633;51.494;5.386;2023-02-10T03:34:27;103537.13;;;17.33;41.34
61710;BME280;47633;51.494;5.386;2023-02-10T03:36:52;103552.00;;;17.34;41.29
61710;BME280;47633;51.494;5.386;2023-02-10T03:39:18;103547.72;;;17.31;41.11
61710;BME280;47633;51.494;5.386;2023-02-10T03:41:43;103549.50;;;17.31;41.21
61710;BME280;47633;51.494;5.386;2023-02-10T03:44:08;103553.91;;;17.30;41.29
61710;BME280;47633;51.494;5.386;2023-02-10T03:46:33;103546.94;;;17.29;41.26
61710;BME280;47633;51.494;5.386;2023-02-10T03:49:00;103543.41;;;17.29;41.34
61710;BME280;47633;51.494;5.386;2023-02-10T03:51:26;103548.69;;;17.29;41.27
61710;BME280;47633;51.494;5.386;2023-02-10T03:53:51;103560.84;;;17.33;41.45
61710;BME280;47633;51.494;5.386;2023-02-10T03:56:16;103551.28;;;17.30;41.18
61710;BME280;47633;51.494;5.386;2023-02-10T03:58:42;103548.75;;;17.27;41.25
61710;BME280;47633;51.494;5.386;2023-02-10T04:01:15;103562.63;;;17.32;41.22
61710;BME280;47633;51.494;5.386;2023-02-10T04:03:40;103562.63;;;17.32;41.28
61710;BME280;47633;51.494;5.386;2023-02-10T04:06:07;103556.44;;;17.33;41.39
61710;BME280;47633;51.494;5.386;2023-02-10T04:08:32;103543.41;;;17.29;41.24
61710;BME280;47633;51.494;5.386;2023-02-10T04:10:58;103545.09;;;17.31;41.34
61710;BME280;47633;51.494;5.386;2023-02-10T04:13:23;103551.16;;;17.33;41.21
61710;BME280;47633;51.494;5.386;2023-02-10T04:15:48;103545.16;;;17.30;41.51
61710;BME280;47633;51.494;5.386;2023-02-10T04:18:14;103556.38;;;17.35;41.30
61710;BME280;47633;51.494;5.386;2023-02-10T04:20:39;103553.78;;;17.33;41.04
61710;BME280;47633;51.494;5.386;2023-02-10T04:23:04;103559.13;;;17.32;41.20
61710;BME280;47633;51.494;5.386;2023-02-10T04:25:30;103559.06;;;17.33;41.35
61710;BME280;47633;51.494;5.386;2023-02-10T04:27:55;103550.41;;;17.30;41.20
61710;BME280;47633;51.494;5.386;2023-02-10T04:30:20;103564.41;;;17.32;41.17
61710;BME280;47633;51.494;5.386;2023-02-10T04:32:46;103556.53;;;17.30;41.12
61710;BME280;47633;51.494;5.386;2023-02-10T04:35:11;103556.38;;;17.35;41.45
61710;BME280;47633;51.494;5.386;2023-02-10T04:37:37;103556.44;;;17.33;41.17
61710;BME280;47633;51.494;5.386;2023-02-10T04:40:03;103558.13;;;17.36;41.19
61710;BME280;47633;51.494;5.386;2023-02-10T04:42:28;103559.06;;;17.33;41.12
61710;BME280;47633;51.494;5.386;2023-02-10T04:44:58;103557.28;;;17.34;41.25
61710;BME280;47633;51.494;5.386;2023-02-10T04:47:27;103554.66;;;17.34;41.38
61710;BME280;47633;51.494;5.386;2023-02-10T04:49:53;103563.38;;;17.36;41.16
61710;BME280;47633;51.494;5.386;2023-02-10T04:52:18;103557.28;;;17.34;41.33
61710;BME280;47633;51.494;5.386;2023-02-10T04:54:44;103558.91;;;17.38;41.49
61710;BME280;47633;51.494;5.386;2023-02-10T04:57:10;103561.53;;;17.38;41.40
61710;BME280;47633;51.494;5.386;2023-02-10T04:59:35;103562.50;;;17.35;41.32
61710;BME280;47633;51.494;5.386;2023-02-10T05:02:00;103559.81;;;17.37;41.28
61710;BME280;47633;51.494;5.386;2023-02-10T05:04:27;103555.47;;;17.36;41.44
61710;BME280;47633;51.494;5.386;2023-02-10T05:06:53;103556.28;;;17.38;41.66
61710;BME280;47633;51.494;5.386;2023-02-10T05:09:18;103563.38;;;17.36;41.89
61710;BME280;47633;51.494;5.386;2023-02-10T05:11:44;103565.09;;;17.37;41.65
61710;BME280;47633;51.494;5.386;2023-02-10T05:14:09;103575.56;;;17.38;41.67
61710;BME280;47633;51.494;5.386;2023-02-10T05:16:34;103583.50;;;17.38;41.47
61710;BME280;47633;51.494;5.386;2023-02-10T05:18:59;103584.41;;;17.37;41.42
61710;BME280;47633;51.494;5.386;2023-02-10T05:21:25;103580.00;;;17.38;41.66
61710;BME280;47633;51.494;5.386;2023-02-10T05:23:50;103589.66;;;17.39;41.81
61710;BME280;47633;51.494;5.386;2023-02-10T05:26:15;103579.09;;;17.39;41.66
61710;BME280;47633;51.494;5.386;2023-02-10T05:28:41;103566.94;;;17.35;41.51
61710;BME280;47633;51.494;5.386;2023-02-10T05:31:06;103565.13;;;17.35;41.67
61710;BME280;47633;51.494;5.386;2023-02-10T05:33:33;103576.50;;;17.37;41.92
61710;BME280;47633;51.494;5.386;2023-02-10T05:35:59;103572.94;;;17.38;41.54
61710;BME280;47633;51.494;5.386;2023-02-10T05:38:24;103573.97;;;17.34;41.45
61710;BME280;47633;51.494;5.386;2023-02-10T05:40:51;103571.34;;;17.34;41.20
61710;BME280;47633;51.494;5.386;2023-02-10T05:43:16;103564.94;;;17.41;40.78
61710;BME280;47633;51.494;5.386;2023-02-10T05:45:42;103581.72;;;17.39;40.90
61710;BME280;47633;51.494;5.386;2023-02-10T05:48:07;103583.38;;;17.41;41.00
61710;BME280;47633;51.494;5.386;2023-02-10T05:50:33;103584.31;;;17.40;41.24
61710;BME280;47633;51.494;5.386;2023-02-10T05:52:58;103584.09;;;17.47;41.11
61710;BME280;47633;51.494;5.386;2023-02-10T05:55:24;103580.31;;;17.54;41.15
61710;BME280;47633;51.494;5.386;2023-02-10T05:57:51;103588.91;;;17.59;41.26
61710;BME280;47633;51.494;5.386;2023-02-10T06:00:16;103577.53;;;17.58;41.25
61710;BME280;47633;51.494;5.386;2023-02-10T06:02:42;103587.81;;;17.66;41.14
61710;BME280;47633;51.494;5.386;2023-02-10T06:05:07;103586.88;;;17.67;41.20
61710;BME280;47633;51.494;5.386;2023-02-10T06:07:33;103593.75;;;17.71;41.20
61710;BME280;47633;51.494;5.386;2023-02-10T06:09:58;103585.91;;;17.70;41.38
61710;BME280;47633;51.494;5.386;2023-02-10T06:12:23;103577.81;;;17.74;41.25
61710;BME280;47633;51.494;5.386;2023-02-10T06:14:49;103585.63;;;17.77;41.30
61710;BME280;47633;51.494;5.386;2023-02-10T06:17:14;103584.66;;;17.80;41.16
61710;BME280;47633;51.494;5.386;2023-02-10T06:19:39;103583.78;;;17.80;41.34
61710;BME280;47633;51.494;5.386;2023-02-10T06:22:06;103591.47;;;17.86;41.01
61710;BME280;47633;51.494;5.386;2023-02-10T06:24:31;103575.81;;;17.81;41.41
61710;BME280;47633;51.494;5.386;2023-02-10T06:26:57;103583.56;;;17.86;41.33
61710;BME280;47633;51.494;5.386;2023-02-10T06:29:22;103586.19;;;17.86;41.34
61710;BME280;47633;51.494;5.386;2023-02-10T06:31:48;103579.13;;;17.86;41.33
61710;BME280;47633;51.494;5.386;2023-02-10T06:34:13;103576.47;;;17.88;41.17
61710;BME280;47633;51.494;5.386;2023-02-10T06:36:38;103592.13;;;17.92;41.33
61710;BME280;47633;51.494;5.386;2023-02-10T06:39:04;103578.34;;;17.84;41.40
61710;BME280;47633;51.494;5.386;2023-02-10T06:41:29;103589.50;;;17.92;41.14
61710;BME280;47633;51.494;5.386;2023-02-10T06:43:54;103591.41;;;17.89;40.99
61710;BME280;47633;51.494;5.386;2023-02-10T06:46:20;103596.47;;;17.95;41.20
61710;BME280;47633;51.494;5.386;2023-02-10T06:48:45;103584.94;;;17.98;41.48
61710;BME280;47633;51.494;5.386;2023-02-10T06:51:10;103584.00;;;17.99;41.27
61710;BME280;47633;51.494;5.386;2023-02-10T06:53:36;103582.34;;;17.96;41.37
61710;BME280;47633;51.494;5.386;2023-02-10T06:56:01;103586.63;;;17.99;41.45
61710;BME280;47633;51.494;5.386;2023-02-10T06:58:26;103584.00;;;17.99;41.69
61710;BME280;47633;51.494;5.386;2023-02-10T07:00:51;103589.22;;;18.00;41.65
61710;BME280;47633;51.494;5.386;2023-02-10T07:03:17;103588.38;;;18.00;41.79
61710;BME280;47633;51.494;5.386;2023-02-10T07:05:42;103583.16;;;17.98;41.91
61710;BME280;47633;51.494;5.386;2023-02-10T07:08:08;103594.50;;;18.00;41.93
61710;BME280;47633;51.494;5.386;2023-02-10T07:10:33;103603.34;;;17.99;41.92
61710;BME280;47633;51.494;5.386;2023-02-10T07:12:59;103615.50;;;18.03;42.05
61710;BME280;47633;51.494;5.386;2023-02-10T07:15:25;103617.28;;;18.03;42.11
61710;BME280;47633;51.494;5.386;2023-02-10T07:17:51;103617.22;;;18.04;42.37
61710;BME280;47633;51.494;5.386;2023-02-10T07:20:20;103616.22;;;18.07;42.52
61710;BME280;47633;51.494;5.386;2023-02-10T07:22:45;103610.16;;;18.05;42.58
61710;BME280;47633;51.494;5.386;2023-02-10T07:25:11;103610.16;;;18.05;42.60
61710;BME280;47633;51.494;5.386;2023-02-10T07:27:36;103611.94;;;18.04;42.94
61710;BME280;47633;51.494;5.386;2023-02-10T07:30:02;103622.41;;;18.07;42.87
61710;BME280;47633;51.494;5.386;2023-02-10T07:32:27;103623.31;;;18.06;42.80
61710;BME280;47633;51.494;5.386;2023-02-10T07:34:52;103618.13;;;18.03;42.93
61710;BME280;47633;51.494;5.386;2023-02-10T07:37:18;103613.66;;;18.05;42.94
61710;BME280;47633;51.494;5.386;2023-02-10T07:39:43;103605.84;;;18.02;42.80
61710;BME280;47633;51.494;5.386;2023-02-10T07:42:08;103614.59;;;18.04;42.93
61710;BME280;47633;51.494;5.386;2023-02-10T07:44:34;103610.31;;;18.00;43.12
61710;BME280;47633;51.494;5.386;2023-02-10T07:46:59;103619.88;;;18.04;43.20
61710;BME280;47633;51.494;5.386;2023-02-10T07:49:25;103612.84;;;18.03;43.15
61710;BME280;47633;51.494;5.386;2023-02-10T07:51:54;103626.69;;;18.10;43.46
61710;BME280;47633;51.494;5.386;2023-02-10T07:54:19;103616.19;;;18.08;43.25
61710;BME280;47633;51.494;5.386;2023-02-10T07:56:44;103617.75;;;18.14;43.43
61710;BME280;47633;51.494;5.386;2023-02-10T07:59:10;103622.91;;;18.17;44.00
61710;BME280;47633;51.494;5.386;2023-02-10T08:01:35;103608.16;;;18.11;44.01
61710;BME280;47633;51.494;5.386;2023-02-10T08:04:06;103620.38;;;18.14;43.47
61710;BME280;47633;51.494;5.386;2023-02-10T08:06:32;103626.50;;;18.15;43.58
61710;BME280;47633;51.494;5.386;2023-02-10T08:08:57;103629.97;;;18.17;43.36
61710;BME280;47633;51.494;5.386;2023-02-10T08:11:22;103628.13;;;18.19;43.26
61710;BME280;47633;51.494;5.386;2023-02-10T08:13:47;103644.75;;;18.21;43.52
61710;BME280;47633;51.494;5.386;2023-02-10T08:16:13;103643.03;;;18.20;43.43
61710;BME280;47633;51.494;5.386;2023-02-10T08:18:38;103641.50;;;18.14;43.18
61710;BME280;47633;51.494;5.386;2023-02-10T08:21:04;103657.91;;;18.22;43.35
61710;BME280;47633;51.494;5.386;2023-02-10T08:23:29;103649.31;;;18.17;43.36
61710;BME280;47633;51.494;5.386;2023-02-10T08:25:55;103643.97;;;18.19;43.15
61710;BME280;47633;51.494;5.386;2023-02-10T08:28:20;103640.53;;;18.17;43.38
61710;BME280;47633;51.494;5.386;2023-02-10T08:30:45;103629.97;;;18.17;43.42
61710;BME280;47633;51.494;5.386;2023-02-10T08:33:11;103641.31;;;18.19;43.95
61710;BME280;47633;51.494;5.386;2023-02-10T08:35:37;103637.13;;;18.13;43.72
61710;BME280;47633;51.494;5.386;2023-02-10T08:38:03;103656.22;;;18.20;43.58
61710;BME280;47633;51.494;5.386;2023-02-10T08:40:29;103659.75;;;18.20;43.50
61710;BME280;47633;51.494;5.386;2023-02-10T08:42:55;103657.16;;;18.19;43.44
61710;BME280;47633;51.494;5.386;2023-02-10T08:45:20;103672.06;;;18.20;43.23
61710;BME280;47633;51.494;5.386;2023-02-10T08:47:45;103673.00;;;18.19;43.43
61710;BME280;47633;51.494;5.386;2023-02-10T08:50:11;103662.59;;;18.14;43.56
61710;BME280;47633;51.494;5.386;2023-02-10T08:52:36;103671.16;;;18.21;43.44
61710;BME280;47633;51.494;5.386;2023-02-10T08:55:02;103651.09;;;18.17;43.46
61710;BME280;47633;51.494;5.386;2023-02-10T08:57:28;103646.59;;;18.19;43.14
61710;BME280;47633;51.494;5.386;2023-02-10T08:59:53;103649.13;;;18.22;43.18
61710;BME280;47633;51.494;5.386;2023-02-10T09:02:19;103647.44;;;18.19;43.02
61710;BME280;47633;51.494;5.386;2023-02-10T09:04:44;103641.22;;;18.22;43.07
61710;BME280;47633;51.494;5.386;2023-02-10T09:07:10;103647.41;;;18.21;43.15
61710;BME280;47633;51.494;5.386;2023-02-10T09:09:39;103649.19;;;18.20;43.01
61710;BME280;47633;51.494;5.386;2023-02-10T09:12:05;103641.44;;;18.16;43.23
61710;BME280;47633;51.494;5.386;2023-02-10T09:14:30;103653.53;;;18.21;43.22
61710;BME280;47633;51.494;5.386;2023-02-10T09:16:56;103660.59;;;18.21;43.11
61710;BME280;47633;51.494;5.386;2023-02-10T09:19:21;103650.09;;;18.19;43.20
61710;BME280;47633;51.494;5.386;2023-02-10T09:21:49;103649.47;;;18.12;43.11
61710;BME280;47633;51.494;5.386;2023-02-10T09:24:15;103651.09;;;18.17;43.46
61710;BME280;47633;51.494;5.386;2023-02-10T09:26:40;103651.88;;;18.19;43.29
61710;BME280;47633;51.494;5.386;2023-02-10T09:29:06;103658.00;;;18.19;43.16
61710;BME280;47633;51.494;5.386;2023-02-10T09:31:33;103655.38;;;18.19;43.20
61710;BME280;47633;51.494;5.386;2023-02-10T09:33:59;103659.75;;;18.20;43.32
61710;BME280;47633;51.494;5.386;2023-02-10T09:36:24;103665.88;;;18.21;43.17
61710;BME280;47633;51.494;5.386;2023-02-10T09:38:50;103663.97;;;18.24;43.23
61710;BME280;47633;51.494;5.386;2023-02-10T09:46:47;103659.75;;;18.20;43.14
61710;BME280;47633;51.494;5.386;2023-02-10T09:54:34;103639.66;;;18.16;43.46
61710;BME280;47633;51.494;5.386;2023-02-10T09:57:04;103653.41;;;18.24;43.24
61710;BME280;47633;51.494;5.386;2023-02-10T09:59:33;103650.72;;;18.26;43.32
61710;BME280;47633;51.494;5.386;2023-02-10T10:02:03;103655.81;;;18.30;43.19
61710;BME280;47633;51.494;5.386;2023-02-10T10:04:36;103655.88;;;18.29;43.20
61710;BME280;47633;51.494;5.386;2023-02-10T10:07:19;103655.88;;;18.29;43.74
61710;BME280;47633;51.494;5.386;2023-02-10T10:09:51;103648.03;;;18.27;44.13
61710;BME280;47633;51.494;5.386;2023-02-10T10:12:19;103657.50;;;18.33;44.15
61710;BME280;47633;51.494;5.386;2023-02-10T10:14:46;103659.28;;;18.33;44.74
61710;BME280;47633;51.494;5.386;2023-02-10T10:25:57;103668.34;;;18.49;44.05
61710;BME280;47633;51.494;5.386;2023-02-10T10:31:30;103661.84;;;18.58;43.95
61710;BME280;47633;51.494;5.386;2023-02-10T10:36:40;103664.25;;;18.64;44.16
61710;BME280;47633;51.494;5.386;2023-02-10T10:41:40;103673.78;;;18.68;44.45
61710;BME280;47633;51.494;5.386;2023-02-10T10:44:08;103670.41;;;18.64;44.42
61710;BME280;47633;51.494;5.386;2023-02-10T10:46:40;103669.34;;;18.68;44.38
61710;BME280;47633;51.494;5.386;2023-02-10T10:49:08;103668.50;;;18.68;44.36
61710;BME280;47633;51.494;5.386;2023-02-10T10:51:33;103666.59;;;18.72;43.77
61710;BME280;47633;51.494;5.386;2023-02-10T10:53:59;103659.56;;;18.71;44.04
61710;BME280;47633;51.494;5.386;2023-02-10T10:56:47;103662.97;;;18.74;44.61
61710;BME280;47633;51.494;5.386;2023-02-10T11:01:50;103649.00;;;18.71;44.27
61710;BME280;47633;51.494;5.386;2023-02-10T11:04:25;103651.69;;;18.69;44.02
61710;BME280;47633;51.494;5.386;2023-02-10T11:06:53;103635.19;;;18.64;43.96
61710;BME280;47633;51.494;5.386;2023-02-10T11:09:27;103647.34;;;18.68;44.19
61710;BME280;47633;51.494;5.386;2023-02-10T11:12:01;103640.47;;;18.64;44.38
61710;BME280;47633;51.494;5.386;2023-02-10T11:14:28;103630.84;;;18.63;44.29
61710;BME280;47633;51.494;5.386;2023-02-10T11:16:58;103630.72;;;18.66;44.37
61710;BME280;47633;51.494;5.386;2023-02-10T11:19:32;103635.78;;;18.71;44.27
61710;BME280;47633;51.494;5.386;2023-02-10T11:21:59;103625.94;;;18.76;44.54
61710;BME280;47633;51.494;5.386;2023-02-10T11:24:28;103617.25;;;18.72;44.96
61710;BME280;47633;51.494;5.386;2023-02-10T11:26:59;103629.41;;;18.76;45.21
61710;BME280;47633;51.494;5.386;2023-02-10T11:29:27;103618.00;;;18.76;45.21
61710;BME280;47633;51.494;5.386;2023-02-10T11:31:54;103623.09;;;18.80;45.45
61710;BME280;47633;51.494;5.386;2023-02-10T11:34:29;103623.88;;;18.84;45.38
61710;BME280;47633;51.494;5.386;2023-02-10T11:36:57;103628.06;;;18.88;45.46
61710;BME280;47633;51.494;5.386;2023-02-10T11:41:50;103626.06;;;18.95;44.97
61710;BME280;47633;51.494;5.386;2023-02-10T11:44:31;103619.91;;;18.94;45.21
61710;BME280;47633;51.494;5.386;2023-02-10T11:47:04;103619.97;;;18.93;45.35
61710;BME280;47633;51.494;5.386;2023-02-10T11:49:45;103615.03;;;18.85;45.18
61710;BME280;47633;51.494;5.386;2023-02-10T11:52:11;103607.19;;;18.82;45.04
61710;BME280;47633;51.494;5.386;2023-02-10T11:54:38;103617.75;;;18.82;45.14
61710;BME280;47633;51.494;5.386;2023-02-10T12:05:52;103589.66;;;18.79;44.85
61710;BME280;47633;51.494;5.386;2023-02-10T12:08:34;103584.44;;;18.78;44.85
61710;BME280;47633;51.494;5.386;2023-02-10T12:11:09;103577.50;;;18.75;44.81
61710;BME280;47633;51.494;5.386;2023-02-10T12:16:15;103584.56;;;18.75;44.51
61710;BME280;47633;51.494;5.386;2023-02-10T12:18:53;103572.44;;;18.69;44.37
61710;BME280;47633;51.494;5.386;2023-02-10T12:32:40;103572.31;;;18.72;43.58
61710;BME280;47633;51.494;5.386;2023-02-10T12:45:24;103571.00;;;18.84;43.02
61710;BME280;47633;51.494;5.386;2023-02-10T12:48:11;103565.75;;;18.82;42.61
61710;BME280;47633;51.494;5.386;2023-02-10T12:53:27;103556.03;;;18.83;42.58
61710;BME280;47633;51.494;5.386;2023-02-10T12:55:59;103543.69;;;18.85;42.30
61710;BME280;47633;51.494;5.386;2023-02-10T12:58:29;103542.75;;;18.86;42.35
61710;BME280;47633;51.494;5.386;2023-02-10T13:03:34;103542.81;;;18.84;42.08
61710;BME280;47633;51.494;5.386;2023-02-10T13:06:21;103548.75;;;18.90;41.91
61710;BME280;47633;51.494;5.386;2023-02-10T13:09:17;103553.78;;;18.96;41.92
61710;BME280;47633;51.494;5.386;2023-02-10T13:12:07;103545.78;;;18.97;41.85
61710;BME280;47633;51.494;5.386;2023-02-10T13:14:37;103534.81;;;19.07;41.83
61710;BME280;47633;51.494;5.386;2023-02-10T13:17:04;103528.50;;;19.11;41.88
61710;BME280;47633;51.494;5.386;2023-02-10T13:19:59;103535.16;;;19.19;41.65
61710;BME280;47633;51.494;5.386;2023-02-10T13:25:33;103504.69;;;19.31;41.25
61710;BME280;47633;51.494;5.386;2023-02-10T13:28:11;103512.75;;;19.68;40.61
61710;BME280;47633;51.494;5.386;2023-02-10T13:31:03;103523.38;;;19.87;40.04
61710;BME280;47633;51.494;5.386;2023-02-10T13:33:44;103505.06;;;20.01;39.77
61710;BME280;47633;51.494;5.386;2023-02-10T13:36:16;103507.34;;;20.26;39.30
61710;BME280;47633;51.494;5.386;2023-02-10T13:38:46;103512.16;;;20.18;39.19
61710;BME280;47633;51.494;5.386;2023-02-10T13:41:24;103512.38;;;20.14;39.21
61710;BME280;47633;51.494;5.386;2023-02-10T13:44:17;103515.06;;;20.31;39.09
61710;BME280;47633;51.494;5.386;2023-02-10T13:46:46;103514.69;;;20.39;39.30
61710;BME280;47633;51.494;5.386;2023-02-10T13:49:17;103508.88;;;20.50;38.64
61710;BME280;47633;51.494;5.386;2023-02-10T13:51:43;103514.88;;;20.53;38.23
61710;BME280;47633;51.494;5.386;2023-02-10T13:54:27;103504.28;;;20.53;38.63
61710;BME280;47633;51.494;5.386;2023-02-10T13:56:54;103504.63;;;20.28;38.73
61710;BME280;47633;51.494;5.386;2023-02-10T14:01:50;103498.66;;;20.42;38.24
61710;BME280;47633;51.494;5.386;2023-02-10T14:04:40;103499.38;;;20.63;38.24
61710;BME280;47633;51.494;5.386;2023-02-10T14:10:45;103512.81;;;20.77;37.11
61710;BME280;47633;51.494;5.386;2023-02-10T14:15:23;103495.88;;;20.62;37.49
61710;BME280;47633;51.494;5.386;2023-02-10T14:18:22;103515.66;;;20.55;37.77
61710;BME280;47633;51.494;5.386;2023-02-10T14:20:55;103506.59;;;20.42;37.89
61710;BME280;47633;51.494;5.386;2023-02-10T14:23:22;103501.38;;;20.40;37.29
61710;BME280;47633;51.494;5.386;2023-02-10T14:25:48;103501.47;;;20.39;37.27
61710;BME280;47633;51.494;5.386;2023-02-10T14:28:26;103495.84;;;20.27;37.44
61710;BME280;47633;51.494;5.386;2023-02-10T14:31:06;103502.59;;;20.16;37.47
61710;BME280;47633;51.494;5.386;2023-02-10T14:33:35;103487.44;;;20.00;37.97
61710;BME280;47633;51.494;5.386;2023-02-10T14:36:06;103497.47;;;19.93;37.85
61710;BME280;47633;51.494;5.386;2023-02-10T14:38:32;103498.75;;;19.85;38.03